createdAt,value
2022-08-16T00:03:32.313Z,10.50
2022-08-16T00:13:41.815Z,10.35
2022-08-16T00:18:40.894Z,9.82
2022-08-16T00:23:40.336Z,9.90
2022-08-16T00:28:45.773Z,11.13
2022-08-16T00:33:50.278Z,9.70
2022-08-16T00:38:48.755Z,10.32
2022-08-16T00:43:48.844Z,10.82
2022-08-16T00:48:49.014Z,10.50
2022-08-16T00:53:47.390Z,10.45
2022-08-16T00:58:46.925Z,12.98
2022-08-16T01:03:49.314Z,10.35
2022-08-16T01:08:49.453Z,10.27
2022-08-16T01:13:51.380Z,9.38
2022-08-16T01:18:54.311Z,10.00
2022-08-16T01:24:02.377Z,10.75
2022-08-16T01:29:01.849Z,10.27
2022-08-16T01:34:01.257Z,11.55
2022-08-16T01:39:01.787Z,10.73
2022-08-16T01:44:01.032Z,10.98
2022-08-16T01:49:03.385Z,10.90
2022-08-16T01:54:03.639Z,11.85
2022-08-16T01:59:04.606Z,11.35
2022-08-16T02:04:10.115Z,11.68
2022-08-16T02:09:12.292Z,11.02
2022-08-16T02:14:17.904Z,11.98
2022-08-16T02:19:18.641Z,11.57
2022-08-16T02:24:31.609Z,13.00
2022-08-16T02:29:31.972Z,12.75
2022-08-16T02:34:33.036Z,10.90
2022-08-16T02:39:41.482Z,12.07
2022-08-16T02:44:42.399Z,10.45
2022-08-16T02:50:03.203Z,13.40
2022-08-16T02:55:01.233Z,13.55
2022-08-16T03:00:00.189Z,11.95
2022-08-16T03:05:03.397Z,13.15
2022-08-16T03:10:06.529Z,11.85
2022-08-16T03:15:07.501Z,13.35
2022-08-16T03:20:08.304Z,14.38
2022-08-16T03:25:13.903Z,16.52
2022-08-16T03:30:24.002Z,12.65
2022-08-16T03:35:32.707Z,13.02
2022-08-16T03:40:53.630Z,13.60
2022-08-16T03:45:57.396Z,13.07
2022-08-16T03:51:00.677Z,12.05
2022-08-16T03:56:07.503Z,15.25
2022-08-16T04:01:06.270Z,12.00
2022-08-16T04:06:07.771Z,10.25
2022-08-16T04:11:09.747Z,11.30
2022-08-16T04:16:08.743Z,12.52
2022-08-16T04:21:08.064Z,10.77
2022-08-16T04:26:07.143Z,10.75
2022-08-16T04:31:17.296Z,17.52
2022-08-16T04:36:19.688Z,19.15
2022-08-16T04:41:19.904Z,13.38
2022-08-16T04:47:02.797Z,11.80
2022-08-16T04:51:55.319Z,18.50
2022-08-16T04:56:54.329Z,20.45
2022-08-16T05:01:59.296Z,26.70
2022-08-16T05:06:58.648Z,24.42
2022-08-16T05:12:30.726Z,22.10
2022-08-16T05:17:32.984Z,16.33
2022-08-16T05:22:37.256Z,19.73
2022-08-16T05:27:42.867Z,30.70
2022-08-16T05:32:47.420Z,33.00
2022-08-16T05:37:47.541Z,24.53
2022-08-16T05:42:49.348Z,24.10
2022-08-16T05:47:59.405Z,28.35
2022-08-16T05:53:05.223Z,29.48
2022-08-16T05:58:08.368Z,28.48
2022-08-16T06:03:13.120Z,26.95
2022-08-16T06:08:31.890Z,24.98
2022-08-16T06:13:34.173Z,17.60
2022-08-16T06:18:34.548Z,19.17
2022-08-16T06:23:35.634Z,17.80
2022-08-16T06:28:39.318Z,18.98
2022-08-16T06:33:45.262Z,18.15
2022-08-16T06:38:55.691Z,19.48
2022-08-16T06:44:20.820Z,23.92
2022-08-16T06:49:28.726Z,25.50
2022-08-16T06:54:34.372Z,21.05
2022-08-16T06:59:48.512Z,22.17
2022-08-16T07:04:55.510Z,20.40
2022-08-16T07:09:56.186Z,23.33
2022-08-16T07:15:00.730Z,19.98
2022-08-16T07:20:02.988Z,14.50
2022-08-16T07:25:23.288Z,73.43
2022-08-16T07:30:39.814Z,34.30
2022-08-16T07:35:49.758Z,19.08
2022-08-16T07:41:00.611Z,28.90
2022-08-16T07:46:01.814Z,19.27
2022-08-16T07:51:09.231Z,15.23
2022-08-16T07:56:08.676Z,15.35
2022-08-16T08:01:12.628Z,15.50
2022-08-16T08:06:20.689Z,11.68
2022-08-16T08:11:19.159Z,11.85
2022-08-16T08:16:18.448Z,13.90
2022-08-16T08:21:19.403Z,14.95
2022-08-16T08:26:28.704Z,14.15
2022-08-16T08:31:28.911Z,13.52
2022-08-16T08:36:33.028Z,11.85
2022-08-16T08:41:39.048Z,13.15
2022-08-16T08:46:38.171Z,11.77
2022-08-16T08:51:41.261Z,13.18
2022-08-16T08:56:46.593Z,18.27
2022-08-16T09:02:03.273Z,17.58
2022-08-16T09:07:10.845Z,18.67
2022-08-16T09:12:37.006Z,16.42
2022-08-16T09:17:51.891Z,12.90
2022-08-16T09:22:54.376Z,16.48
2022-08-16T09:28:02.281Z,11.98
2022-08-16T09:33:03.113Z,10.90
2022-08-16T09:38:04.885Z,9.88
2022-08-16T09:43:08.902Z,10.43
2022-08-16T09:48:08.367Z,8.88
2022-08-16T09:53:08.476Z,10.20
2022-08-16T09:58:37.666Z,11.30
2022-08-16T10:03:33.706Z,9.68
2022-08-16T10:08:32.387Z,9.57
2022-08-16T10:13:51.013Z,10.20
2022-08-16T10:19:06.558Z,9.15
2022-08-16T10:24:05.773Z,10.98
2022-08-16T10:29:06.205Z,9.82
2022-08-16T10:34:04.516Z,9.43
2022-08-16T10:39:22.923Z,9.98
2022-08-16T10:44:24.108Z,8.77
2022-08-16T10:49:22.993Z,9.20
2022-08-16T10:54:29.803Z,8.07
2022-08-16T10:59:39.188Z,9.38
2022-08-16T11:05:05.981Z,8.77
2022-08-16T11:11:01.587Z,10.02
2022-08-16T11:15:26.272Z,12.43
2022-08-16T11:20:42.053Z,11.10
2022-08-16T11:31:00.606Z,9.95
2022-08-16T11:41:17.653Z,7.60
2022-08-16T11:46:44.731Z,9.10
2022-08-16T11:51:39.757Z,11.25
2022-08-16T11:56:52.041Z,7.97
2022-08-16T12:01:59.885Z,7.93
2022-08-16T12:07:03.008Z,10.02
2022-08-16T12:12:03.032Z,10.25
2022-08-16T12:17:03.696Z,7.32
2022-08-16T12:22:05.454Z,10.90
2022-08-16T12:27:05.413Z,8.00
2022-08-16T12:32:35.757Z,7.43
2022-08-16T12:37:27.529Z,6.65
2022-08-16T12:42:35.205Z,6.65
2022-08-16T12:48:04.844Z,13.10
2022-08-16T12:53:11.985Z,7.28
2022-08-16T12:58:14.182Z,8.27
2022-08-16T13:03:32.243Z,11.40
2022-08-16T13:08:38.828Z,7.30
2022-08-16T13:13:37.763Z,8.80
2022-08-16T13:18:37.462Z,8.20
2022-08-16T13:23:36.442Z,13.07
2022-08-16T13:28:42.139Z,14.07
2022-08-16T13:33:47.556Z,7.70
2022-08-16T13:38:46.956Z,10.88
2022-08-16T13:43:57.523Z,7.05
2022-08-16T13:48:59.417Z,7.32
2022-08-16T13:54:02.644Z,9.98
2022-08-16T13:59:02.625Z,6.88
2022-08-16T14:04:02.409Z,7.72
2022-08-16T14:09:06.545Z,8.73
2022-08-16T14:14:06.209Z,9.73
2022-08-16T14:19:08.160Z,9.13
2022-08-16T14:24:12.821Z,8.38
2022-08-16T14:29:25.833Z,7.45
2022-08-16T14:34:31.594Z,8.60
2022-08-16T14:39:30.021Z,8.23
2022-08-16T14:44:28.341Z,6.88
2022-08-16T14:49:26.665Z,9.15
2022-08-16T14:54:30.521Z,7.45
2022-08-16T14:59:29.913Z,9.30
2022-08-16T15:04:39.742Z,7.82
2022-08-16T15:10:00.680Z,10.90
2022-08-16T15:15:00.137Z,11.32
2022-08-16T15:19:59.450Z,12.38
2022-08-16T15:25:00.037Z,6.80
2022-08-16T15:29:59.322Z,6.60
2022-08-16T15:35:04.568Z,7.55
2022-08-16T15:40:05.486Z,7.97
2022-08-16T15:45:12.059Z,11.25
2022-08-16T15:50:11.089Z,6.18
2022-08-16T15:55:24.037Z,5.70
2022-08-16T16:00:30.235Z,6.38
2022-08-16T16:05:30.483Z,7.05
2022-08-16T16:10:33.234Z,5.78
2022-08-16T16:15:33.940Z,6.75
2022-08-16T16:20:32.416Z,10.05
2022-08-16T16:25:33.852Z,9.88
2022-08-16T16:30:37.332Z,7.72
2022-08-16T16:35:46.967Z,7.15
2022-08-16T16:40:54.128Z,5.38
2022-08-16T16:45:52.860Z,5.90
2022-08-16T16:50:51.497Z,6.47
2022-08-16T16:55:52.488Z,6.63
2022-08-16T17:00:51.768Z,7.07
2022-08-16T17:06:03.188Z,5.95
2022-08-16T17:11:09.232Z,11.07
2022-08-16T17:16:08.721Z,5.07
2022-08-16T17:21:17.812Z,5.93
2022-08-16T17:26:17.437Z,8.20
2022-08-16T17:31:17.840Z,9.40
2022-08-16T17:36:36.201Z,9.55
2022-08-16T17:41:37.526Z,6.68
2022-08-16T17:46:51.443Z,6.18
2022-08-16T17:51:51.116Z,5.45
2022-08-16T17:56:50.846Z,5.43
2022-08-16T18:01:50.646Z,4.70
2022-08-16T18:06:49.263Z,6.95
2022-08-16T18:11:47.809Z,9.73
2022-08-16T18:16:48.727Z,8.60
2022-08-16T18:22:04.749Z,9.75
2022-08-16T18:27:25.384Z,8.20
2022-08-16T18:32:25.041Z,9.30
2022-08-16T18:37:23.823Z,9.10
2022-08-16T18:42:22.186Z,8.02
2022-08-16T18:47:20.502Z,6.07
2022-08-16T18:52:25.813Z,7.80
2022-08-16T18:57:24.228Z,9.80
2022-08-16T19:02:57.260Z,5.72
2022-08-16T19:07:45.675Z,11.25
2022-08-16T19:12:43.943Z,7.72
2022-08-16T19:17:42.624Z,6.70
2022-08-16T19:28:02.152Z,7.28
2022-08-16T19:33:11.002Z,8.18
2022-08-16T19:38:09.549Z,7.38
2022-08-16T19:43:10.227Z,8.00
2022-08-16T19:48:08.487Z,10.27
2022-08-16T19:53:17.481Z,6.82
2022-08-16T19:58:19.057Z,6.72
2022-08-16T20:03:19.722Z,8.85
2022-08-16T20:08:19.067Z,8.35
2022-08-16T20:13:18.832Z,6.95
2022-08-16T20:18:24.796Z,8.48
2022-08-16T20:23:25.204Z,8.90
2022-08-16T20:28:40.627Z,12.07
2022-08-16T20:33:43.693Z,8.65
2022-08-16T20:38:45.705Z,10.75
2022-08-16T20:43:44.060Z,7.75
2022-08-16T20:48:45.393Z,9.20
2022-08-16T20:53:44.022Z,11.50
2022-08-16T20:58:42.430Z,7.20
2022-08-16T21:03:40.783Z,10.82
2022-08-16T21:08:53.270Z,5.60
2022-08-16T21:14:00.082Z,6.13
2022-08-16T21:18:59.714Z,8.38
2022-08-16T21:23:59.404Z,5.20
2022-08-16T21:28:57.640Z,6.45
2022-08-16T21:33:56.150Z,8.35
2022-08-16T21:38:54.601Z,9.02
2022-08-16T21:43:54.180Z,6.00
2022-08-16T21:48:52.385Z,5.90
2022-08-16T21:53:50.647Z,6.53
2022-08-16T21:58:52.881Z,6.00
2022-08-16T22:04:09.570Z,7.80
2022-08-16T22:09:12.396Z,7.30
2022-08-16T22:14:11.074Z,6.47
2022-08-16T22:19:11.663Z,9.57
2022-08-16T22:24:10.213Z,9.88
2022-08-16T22:29:10.442Z,5.65
2022-08-16T22:34:10.093Z,5.60
2022-08-16T22:39:09.693Z,7.10
2022-08-16T22:44:08.200Z,9.10
2022-08-16T22:49:07.069Z,5.05
2022-08-16T22:54:39.285Z,5.55
2022-08-16T22:59:26.096Z,6.18
2022-08-16T23:04:25.041Z,7.40
2022-08-16T23:09:25.021Z,6.28
2022-08-16T23:14:23.260Z,6.13
2022-08-16T23:19:21.732Z,5.90
2022-08-16T23:24:20.595Z,6.43
2022-08-16T23:29:24.714Z,6.85
2022-08-16T23:34:24.740Z,8.13
2022-08-16T23:39:23.077Z,6.88
2022-08-16T23:44:57.430Z,6.45
2022-08-16T23:50:01.794Z,6.15
2022-08-16T23:54:59.894Z,6.53
2022-08-16T23:59:59.538Z,5.97
